LYBELQSA

Guest
Details From LYBE - Belgrade
To LQSA - Sarajevo
Flight Number -
Tags generated
Created
Modified
Stats Distance 104 nm / 193 km
Max Altitude 1,700 ft / 518 m
Waypoints 3
Social Downloads 2
Likes 0
Share VATSIM

Download

Looking for another format? Having issues loading an existing format? Contact us
Advertisement - Login to hide

Notes

Basic altitude profile: - Ascent Rate: 2500ft/min - Ascent Speed: 250kts - Cruise Altitude: 35000ft - Cruise Speed: 420kts - Descent Rate: 1500ft/min - Descent Speed: 250kts Options: - Use NATs: yes - Use PACOTS: yes - Use low airways: yes - Use high airways: yes

Route

LYBE KEB LQSA

ID Type Via Altitude Latitude Longitude Leg Dist Tot Dist Heading (true) Name
O LYBE APT - 0 ft / 0 m 44.81843˚ 20.30921˚ - 0 nm - Belgrade
KEB VOR - 1,700 ft / 518 m 43.93386˚ 18.44983˚ 95 nm 95 nm 237° / 236° SARAJEVO VOR-DME
O LQSA APT - 0 ft / 0 m 43.82460˚ 18.33150˚ 8 nm 104 nm 218° / 218° Sarajevo

Altitude Profile

Advertisement - Login to hide

LYBE

Details ICAO LYBE (BEG)
Name Belgrade
Region Serbia and Montenegro
Timezone Europe/Belgrade (UTC+1.0)
Stats Elevation 335 ft / 102 m (AMSL)
Location 44.818429° 20.309211°
Runways 1
Magnetic Variation 4.670° E

METAR

LYBE 111130Z 14014KT CAVOK 12/03 Q1008 NOSIG

Decode

TAF

TAF LYBE 110500Z 1106/1206 14013KT CAVOK TX12/1113Z TN07/1106Z

Decode

Departure Runways

ID Width Length Bearing (true) Bearing (mag) Surface Threshold Offset Overrun Length
12 148 ft / 45 m 11,138 ft / 3,395 m 122.00° 117.33° Asphalt 1,000 ft / 305 m 0 ft / 0 m
30 148 ft / 45 m 11,138 ft / 3,395 m 302.03° 297.36° Asphalt 1,312 ft / 400 m 0 ft / 0 m

LQSA

Details ICAO LQSA (SJJ)
Name Sarajevo
Region Bosnia and Herzegovinia
Timezone Europe/Sarajevo (UTC+1.0)
Stats Elevation 1,708 ft / 521 m (AMSL)
Location 43.824597° 18.331500°
Runways 1
Magnetic Variation 4.221° E

METAR

LQSA 111130Z 13015KT 9999 -RA FEW010 SCT022 BKN040 08/05 Q1010 WS ALL RWY NOSIG

Decode

TAF

Not found

Destination Runways

ID Width Length Bearing (true) Bearing (mag) Surface Threshold Offset Overrun Length
12 150 ft / 46 m 8,519 ft / 2,597 m 117.41° 113.19° Asphalt 333 ft / 102 m 0 ft / 0 m
30 150 ft / 46 m 8,519 ft / 2,597 m 297.43° 293.21° Asphalt 666 ft / 203 m 0 ft / 0 m

Approach Navaids

Runway Type Ident Frequency Range Bearing (true) Bearing (mag) Slope Elevation
12 Localiser BHS 110.70 MHz 25 nm / 46 km 117.00° 112.78° - 1,709 ft / 521 m (AMSL)
12 Glidescope BHS 110.70 MHz 25 nm / 46 km 117.00° 112.78° 3.20° 1,705 ft / 520 m (AMSL)
12 DME BHS 110.70 MHz 25 nm / 46 km - - - 1,705 ft / 520 m (AMSL)

Popular Alternatives